createdAt,value
2023-04-26T00:03:42.678Z,57.94
2023-04-26T00:09:04.787Z,57.90
2023-04-26T00:14:26.228Z,57.87
2023-04-26T00:19:47.142Z,57.66
2023-04-26T00:25:08.651Z,57.66
2023-04-26T00:30:29.345Z,57.59
2023-04-26T00:35:50.286Z,57.58
2023-04-26T00:41:11.230Z,57.62
2023-04-26T00:46:32.413Z,57.23
2023-04-26T00:51:54.076Z,57.18
2023-04-26T00:57:15.252Z,57.16
2023-04-26T01:02:37.783Z,57.23
2023-04-26T01:08:02.504Z,57.96
2023-04-26T01:13:26.093Z,57.80
2023-04-26T01:18:54.300Z,57.45
2023-04-26T01:24:15.359Z,57.49
2023-04-26T01:29:36.226Z,57.77
2023-04-26T01:34:59.595Z,57.90
2023-04-26T01:40:21.348Z,57.85
2023-04-26T01:45:42.087Z,57.45
2023-04-26T01:51:21.831Z,57.69
2023-04-26T01:56:42.811Z,57.90
2023-04-26T02:02:03.563Z,57.79
2023-04-26T02:07:24.391Z,57.99
2023-04-26T02:12:50.098Z,58.06
2023-04-26T02:18:11.660Z,57.67
2023-04-26T02:23:33.032Z,57.83
2023-04-26T02:28:54.137Z,57.63
2023-04-26T02:34:15.217Z,57.67
2023-04-26T02:39:36.094Z,57.66
2023-04-26T02:44:57.111Z,57.81
2023-04-26T02:50:18.793Z,57.68
2023-04-26T02:55:40.198Z,57.78
2023-04-26T03:01:01.942Z,58.52
2023-04-26T03:06:23.103Z,58.10
2023-04-26T03:11:43.762Z,58.20
2023-04-26T03:17:04.883Z,58.69
2023-04-26T03:22:27.088Z,58.36
2023-04-26T03:27:48.385Z,58.85
2023-04-26T03:33:09.747Z,58.42
2023-04-26T03:38:30.633Z,58.91
2023-04-26T03:43:51.616Z,58.64
2023-04-26T03:49:12.462Z,58.47
2023-04-26T03:54:36.581Z,58.36
2023-04-26T03:59:58.111Z,58.24
2023-04-26T04:05:18.901Z,58.29
2023-04-26T04:10:40.056Z,58.70
2023-04-26T04:16:00.902Z,58.46
2023-04-26T04:21:21.512Z,58.43
2023-04-26T04:26:45.332Z,58.24
2023-04-26T04:32:08.244Z,58.17
2023-04-26T04:37:33.109Z,58.96
2023-04-26T04:42:54.958Z,58.29
2023-04-26T04:48:17.231Z,58.79
2023-04-26T04:53:39.090Z,58.89
2023-04-26T04:59:00.435Z,59.20
2023-04-26T05:04:21.796Z,59.29
2023-04-26T05:09:43.178Z,59.02
2023-04-26T05:15:05.503Z,59.34
2023-04-26T05:20:26.528Z,59.31
2023-04-26T05:25:48.853Z,59.35
2023-04-26T05:31:29.793Z,59.62
2023-04-26T05:37:04.632Z,59.28
2023-04-26T05:42:25.605Z,59.25
2023-04-26T05:47:47.705Z,59.03
2023-04-26T05:53:08.815Z,60.84
2023-04-26T05:58:29.890Z,58.86
2023-04-26T06:03:51.709Z,58.41
2023-04-26T06:09:18.437Z,57.78
2023-04-26T06:14:41.473Z,57.43
2023-04-26T06:20:10.075Z,57.69
2023-04-26T06:25:32.127Z,57.09
2023-04-26T06:30:53.187Z,57.25
2023-04-26T06:36:14.467Z,57.02
2023-04-26T06:41:36.075Z,57.02
2023-04-26T06:46:57.251Z,57.21
2023-04-26T06:52:19.056Z,56.77
2023-04-26T06:57:41.528Z,56.77
2023-04-26T07:03:02.653Z,56.86
2023-04-26T07:08:23.778Z,56.20
2023-04-26T07:13:44.672Z,57.29
2023-04-26T07:19:06.441Z,56.90
2023-04-26T07:24:27.432Z,56.58
2023-04-26T07:29:48.272Z,56.07
2023-04-26T07:35:15.942Z,56.65
2023-04-26T07:40:37.182Z,57.32
2023-04-26T07:46:05.004Z,57.21
2023-04-26T07:51:27.416Z,57.78
2023-04-26T07:56:48.144Z,57.89
2023-04-26T08:02:08.990Z,56.89
2023-04-26T08:07:29.943Z,57.36
2023-04-26T08:12:50.625Z,57.45
2023-04-26T08:18:11.408Z,58.26
2023-04-26T08:23:36.534Z,58.19
2023-04-26T08:28:57.536Z,58.51
2023-04-26T08:34:18.219Z,58.25
2023-04-26T08:39:39.065Z,58.37
2023-04-26T08:45:02.501Z,58.12
2023-04-26T08:50:23.860Z,59.02
2023-04-26T08:55:51.423Z,58.53
2023-04-26T09:01:15.503Z,57.80
2023-04-26T09:06:37.213Z,57.20
2023-04-26T09:12:01.776Z,57.21
2023-04-26T09:17:33.015Z,57.62
2023-04-26T09:23:05.300Z,57.73
2023-04-26T09:28:26.286Z,57.23
2023-04-26T09:34:00.620Z,56.68
2023-04-26T09:39:38.255Z,57.82
2023-04-26T09:45:06.615Z,58.45
2023-04-26T09:50:32.165Z,58.75
2023-04-26T09:55:54.330Z,59.09
2023-04-26T10:01:18.019Z,58.02
2023-04-26T10:06:39.305Z,57.49
2023-04-26T10:12:00.567Z,57.57
2023-04-26T10:17:22.048Z,56.19
2023-04-26T10:22:53.077Z,56.01
2023-04-26T10:28:14.046Z,56.43
2023-04-26T10:33:34.740Z,61.46
2023-04-26T10:39:17.622Z,56.59
2023-04-26T10:44:41.949Z,56.44
2023-04-26T10:50:10.635Z,55.18
2023-04-26T10:55:42.612Z,55.04
2023-04-26T11:01:18.814Z,55.35
2023-04-26T11:06:57.932Z,55.02
2023-04-26T11:12:18.557Z,54.70
2023-04-26T11:17:39.440Z,54.61
2023-04-26T11:23:00.759Z,54.98
2023-04-26T11:28:23.315Z,54.29
2023-04-26T11:33:43.975Z,53.68
2023-04-26T11:39:04.792Z,53.69
2023-04-26T11:44:25.611Z,53.50
2023-04-26T11:49:47.188Z,53.35
2023-04-26T11:55:10.362Z,53.67
2023-04-26T12:00:31.435Z,52.94
2023-04-26T12:05:56.269Z,52.88
2023-04-26T12:11:17.463Z,54.56
2023-04-26T12:16:38.294Z,52.46
2023-04-26T12:21:59.650Z,51.92
2023-04-26T12:55:44.513Z,52.69
2023-04-26T13:01:05.378Z,51.52
2023-04-26T13:06:27.879Z,51.03
2023-04-26T13:11:49.010Z,51.61
2023-04-26T13:17:11.029Z,51.10
2023-04-26T13:22:32.114Z,51.24
2023-04-26T13:27:54.771Z,51.00
2023-04-26T13:33:15.567Z,50.92
2023-04-26T13:38:36.957Z,51.00
2023-04-26T13:43:57.592Z,50.64
2023-04-26T13:49:18.330Z,50.51
2023-04-26T13:54:41.767Z,50.80
2023-04-26T14:00:04.125Z,49.88
2023-04-26T14:05:32.496Z,50.48
2023-04-26T14:10:53.328Z,50.42
2023-04-26T14:16:14.025Z,50.65
2023-04-26T14:21:34.790Z,50.49
2023-04-26T14:26:55.462Z,50.37
2023-04-26T14:32:16.418Z,49.55
2023-04-26T14:37:37.120Z,49.40
2023-04-26T14:42:58.028Z,49.62
2023-04-26T14:48:19.267Z,49.42
2023-04-26T14:53:40.475Z,49.71
2023-04-26T14:59:01.738Z,49.84
2023-04-26T15:04:22.774Z,49.39
2023-04-26T15:09:43.748Z,49.47
2023-04-26T15:15:04.940Z,49.46
2023-04-26T15:20:25.803Z,49.30
2023-04-26T15:25:46.574Z,49.52
2023-04-26T15:31:11.445Z,49.33
2023-04-26T15:36:32.371Z,49.22
2023-04-26T15:41:53.467Z,49.42
2023-04-26T15:47:14.549Z,49.55
2023-04-26T15:52:38.809Z,49.47
2023-04-26T15:58:00.182Z,48.75
2023-04-26T16:03:21.556Z,49.23
2023-04-26T16:08:43.097Z,49.13
2023-04-26T16:14:03.940Z,49.18
2023-04-26T16:19:26.827Z,48.49
2023-04-26T16:24:47.759Z,48.60
2023-04-26T16:30:09.766Z,49.03
2023-04-26T16:35:31.172Z,49.01
2023-04-26T16:40:58.866Z,48.93
2023-04-26T16:46:20.141Z,48.51
2023-04-26T16:51:43.589Z,48.47
2023-04-26T16:57:04.618Z,48.30
2023-04-26T17:02:25.669Z,48.90
2023-04-26T17:07:46.360Z,48.38
2023-04-26T17:13:08.246Z,48.68
2023-04-26T17:18:29.287Z,48.53
2023-04-26T17:23:50.060Z,49.09
2023-04-26T17:29:11.018Z,48.99
2023-04-26T17:34:32.463Z,48.70
2023-04-26T17:39:54.483Z,48.61
2023-04-26T17:45:15.228Z,49.00
2023-04-26T17:50:36.052Z,49.64
2023-04-26T17:55:56.841Z,50.11
2023-04-26T18:01:17.676Z,50.11
2023-04-26T18:06:39.977Z,50.47
2023-04-26T18:12:00.754Z,50.42
2023-04-26T18:17:21.622Z,50.37
2023-04-26T18:22:42.518Z,50.15
2023-04-26T18:28:03.448Z,50.47
2023-04-26T18:33:25.019Z,50.50
2023-04-26T18:38:46.275Z,51.19
2023-04-26T18:44:13.551Z,51.19
2023-04-26T18:49:34.433Z,50.98
2023-04-26T18:54:55.364Z,50.72
2023-04-26T19:00:16.302Z,50.85
2023-04-26T19:05:41.399Z,50.56
2023-04-26T19:11:02.282Z,51.10
2023-04-26T19:16:23.192Z,51.15
2023-04-26T19:21:43.822Z,51.01
2023-04-26T19:27:04.687Z,51.42
2023-04-26T19:32:25.567Z,51.37
2023-04-26T19:37:46.459Z,51.37
2023-04-26T19:43:07.260Z,51.50
2023-04-26T19:48:28.031Z,51.41
2023-04-26T19:53:48.673Z,51.15
2023-04-26T19:59:09.547Z,50.87
2023-04-26T20:04:30.206Z,50.93
2023-04-26T20:09:50.907Z,51.54
2023-04-26T20:15:13.137Z,53.04
2023-04-26T20:20:34.127Z,51.87
2023-04-26T20:25:55.182Z,51.90
2023-04-26T20:31:15.899Z,51.56
2023-04-26T20:36:36.576Z,51.48
2023-04-26T20:41:57.315Z,51.66
2023-04-26T20:47:17.868Z,52.04
2023-04-26T20:52:38.674Z,52.32
2023-04-26T20:57:59.425Z,52.64
2023-04-26T21:03:20.346Z,52.60
2023-04-26T21:08:43.097Z,52.59
2023-04-26T21:14:04.440Z,52.13
2023-04-26T21:19:25.080Z,52.22
2023-04-26T21:24:45.845Z,52.38
2023-04-26T21:30:07.753Z,53.23
2023-04-26T21:35:29.172Z,51.88
2023-04-26T21:40:50.022Z,51.30
2023-04-26T21:46:11.806Z,52.24
2023-04-26T21:51:33.494Z,52.16
2023-04-26T21:56:54.368Z,52.18
2023-04-26T22:02:15.187Z,52.86
2023-04-26T22:07:36.359Z,52.50
2023-04-26T22:12:57.104Z,52.53
2023-04-26T22:18:17.900Z,52.68
2023-04-26T22:23:38.884Z,52.85
2023-04-26T22:28:59.599Z,52.72
2023-04-26T22:34:20.289Z,53.13
2023-04-26T22:39:41.439Z,53.02
2023-04-26T22:45:02.512Z,53.33
2023-04-26T22:50:23.775Z,52.87
2023-04-26T22:55:44.524Z,52.90
2023-04-26T23:01:05.565Z,52.65
2023-04-26T23:06:26.796Z,52.84
2023-04-26T23:11:47.960Z,52.89
2023-04-26T23:17:09.099Z,52.72
2023-04-26T23:22:29.887Z,52.80
2023-04-26T23:27:50.650Z,52.58
2023-04-26T23:33:11.728Z,52.43
2023-04-26T23:38:32.759Z,52.52
2023-04-26T23:43:53.455Z,53.08
2023-04-26T23:49:14.367Z,53.20
2023-04-26T23:54:35.365Z,53.38
2023-04-26T23:59:56.201Z,53.39
